sensor_id;sensor_type;location;lat;lon;timestamp;pressure;altitude;pressure_sealevel;temperature;humidity
48874;BME280;66155;46.204;5.220;2023-04-28T00:04:10;98523.00;;;19.31;45.24
48874;BME280;66155;46.204;5.220;2023-04-28T00:09:10;98515.38;;;19.21;45.99
48874;BME280;66155;46.204;5.220;2023-04-28T00:14:13;98515.84;;;19.23;45.97
48874;BME280;66155;46.204;5.220;2023-04-28T00:19:13;98513.50;;;19.21;46.42
48874;BME280;66155;46.204;5.220;2023-04-28T00:24:14;98523.63;;;19.19;46.19
48874;BME280;66155;46.204;5.220;2023-04-28T00:29:14;98523.91;;;19.17;46.44
48874;BME280;66155;46.204;5.220;2023-04-28T00:34:15;98514.09;;;19.09;46.86
48874;BME280;66155;46.204;5.220;2023-04-28T00:39:18;98510.69;;;19.09;47.23
48874;BME280;66155;46.204;5.220;2023-04-28T00:44:19;98507.59;;;19.07;47.79
48874;BME280;66155;46.204;5.220;2023-04-28T00:49:20;98507.13;;;19.05;47.61
48874;BME280;66155;46.204;5.220;2023-04-28T00:54:20;98516.72;;;19.00;48.01
48874;BME280;66155;46.204;5.220;2023-04-28T00:59:22;98505.38;;;19.00;48.13
48874;BME280;66155;46.204;5.220;2023-04-28T01:04:23;98507.38;;;18.94;48.50
48874;BME280;66155;46.204;5.220;2023-04-28T01:09:25;98503.47;;;18.92;49.03
48874;BME280;66155;46.204;5.220;2023-04-28T01:14:26;98500.50;;;18.85;49.36
48874;BME280;66155;46.204;5.220;2023-04-28T01:19:26;98499.53;;;18.80;49.70
48874;BME280;66155;46.204;5.220;2023-04-28T01:24:27;98503.16;;;18.85;49.40
48874;BME280;66155;46.204;5.220;2023-04-28T01:29:27;98507.88;;;18.74;49.32
48874;BME280;66155;46.204;5.220;2023-04-28T01:34:28;98494.78;;;18.60;49.82
48874;BME280;66155;46.204;5.220;2023-04-28T01:39:28;98495.53;;;18.52;49.71
48874;BME280;66155;46.204;5.220;2023-04-28T01:44:29;98498.19;;;18.52;49.40
48874;BME280;66155;46.204;5.220;2023-04-28T01:49:29;98494.09;;;18.46;49.81
48874;BME280;66155;46.204;5.220;2023-04-28T01:54:30;98513.97;;;18.43;49.69
48874;BME280;66155;46.204;5.220;2023-04-28T01:59:30;98511.38;;;18.29;50.06
48874;BME280;66155;46.204;5.220;2023-04-28T02:04:31;98519.97;;;18.35;49.54
48874;BME280;66155;46.204;5.220;2023-04-28T02:09:32;98527.88;;;18.35;49.16
48874;BME280;66155;46.204;5.220;2023-04-28T02:14:32;98549.22;;;18.24;49.48
48874;BME280;66155;46.204;5.220;2023-04-28T02:19:33;98536.63;;;18.21;49.37
48874;BME280;66155;46.204;5.220;2023-04-28T02:24:34;98553.94;;;18.14;49.68
48874;BME280;66155;46.204;5.220;2023-04-28T02:29:36;98569.91;;;18.09;49.86
48874;BME280;66155;46.204;5.220;2023-04-28T02:34:36;98554.97;;;18.04;50.05
48874;BME280;66155;46.204;5.220;2023-04-28T02:39:38;98569.53;;;18.01;50.16
48874;BME280;66155;46.204;5.220;2023-04-28T02:44:39;98569.22;;;18.03;49.90
48874;BME280;66155;46.204;5.220;2023-04-28T02:49:39;98562.28;;;18.07;49.90
48874;BME280;66155;46.204;5.220;2023-04-28T02:54:40;98562.09;;;18.03;50.05
48874;BME280;66155;46.204;5.220;2023-04-28T02:59:41;98555.56;;;18.01;50.02
48874;BME280;66155;46.204;5.220;2023-04-28T03:04:41;98561.44;;;17.98;49.86
48874;BME280;66155;46.204;5.220;2023-04-28T03:09:42;98557.81;;;17.94;49.95
48874;BME280;66155;46.204;5.220;2023-04-28T03:14:42;98557.34;;;17.92;50.14
48874;BME280;66155;46.204;5.220;2023-04-28T03:19:43;98563.22;;;17.89;49.98
48874;BME280;66155;46.204;5.220;2023-04-28T03:24:43;98569.34;;;17.84;50.37
48874;BME280;66155;46.204;5.220;2023-04-28T03:29:43;98569.66;;;17.82;49.96
48874;BME280;66155;46.204;5.220;2023-04-28T03:34:44;98579.03;;;17.75;50.40
48874;BME280;66155;46.204;5.220;2023-04-28T03:39:44;98579.81;;;17.75;50.35
48874;BME280;66155;46.204;5.220;2023-04-28T03:44:45;98587.06;;;17.70;50.69
48874;BME280;66155;46.204;5.220;2023-04-28T03:49:45;98572.88;;;17.65;50.76
48874;BME280;66155;46.204;5.220;2023-04-28T03:54:46;98566.09;;;17.64;50.71
48874;BME280;66155;46.204;5.220;2023-04-28T03:59:46;98560.72;;;17.56;50.89
48874;BME280;66155;46.204;5.220;2023-04-28T04:04:46;98551.88;;;17.38;51.24
48874;BME280;66155;46.204;5.220;2023-04-28T04:09:47;98548.34;;;17.42;51.12
48874;BME280;66155;46.204;5.220;2023-04-28T04:14:48;98543.59;;;17.31;51.11
48874;BME280;66155;46.204;5.220;2023-04-28T04:19:48;98543.22;;;17.23;51.48
48874;BME280;66155;46.204;5.220;2023-04-28T04:24:49;98558.91;;;17.15;51.26
48874;BME280;66155;46.204;5.220;2023-04-28T04:29:50;98571.06;;;17.10;52.01
48874;BME280;66155;46.204;5.220;2023-04-28T04:34:50;98570.88;;;17.07;51.74
48874;BME280;66155;46.204;5.220;2023-04-28T04:39:51;98573.50;;;17.07;51.54
48874;BME280;66155;46.204;5.220;2023-04-28T04:44:51;98591.94;;;17.07;51.47
48874;BME280;66155;46.204;5.220;2023-04-28T04:49:51;98591.53;;;17.00;51.82
48874;BME280;66155;46.204;5.220;2023-04-28T04:54:52;98587.84;;;17.01;51.39
48874;BME280;66155;46.204;5.220;2023-04-28T04:59:53;98593.59;;;17.03;51.36
48874;BME280;66155;46.204;5.220;2023-04-28T05:04:53;98590.28;;;17.11;51.23
48874;BME280;66155;46.204;5.220;2023-04-28T05:09:54;98578.59;;;17.17;51.08
48874;BME280;66155;46.204;5.220;2023-04-28T05:14:54;98573.13;;;17.27;50.89
48874;BME280;66155;46.204;5.220;2023-04-28T05:19:55;98583.25;;;17.48;50.57
48874;BME280;66155;46.204;5.220;2023-04-28T05:24:55;98590.38;;;17.61;50.68
48874;BME280;66155;46.204;5.220;2023-04-28T05:29:56;98591.34;;;17.65;50.24
48874;BME280;66155;46.204;5.220;2023-04-28T05:34:56;98608.03;;;17.75;50.37
48874;BME280;66155;46.204;5.220;2023-04-28T05:39:57;98607.59;;;17.81;50.02
48874;BME280;66155;46.204;5.220;2023-04-28T05:44:57;98614.28;;;17.93;50.06
48874;BME280;66155;46.204;5.220;2023-04-28T05:49:58;98631.53;;;17.99;49.86
48874;BME280;66155;46.204;5.220;2023-04-28T05:54:58;98636.50;;;18.00;50.02
48874;BME280;66155;46.204;5.220;2023-04-28T05:59:59;98618.81;;;18.01;49.90
48874;BME280;66155;46.204;5.220;2023-04-28T06:04:59;98635.38;;;18.15;49.66
48874;BME280;66155;46.204;5.220;2023-04-28T06:10:00;98652.97;;;18.20;50.03
48874;BME280;66155;46.204;5.220;2023-04-28T06:15:00;98655.09;;;18.32;49.93
48874;BME280;66155;46.204;5.220;2023-04-28T06:20:01;98665.13;;;18.30;49.58
48874;BME280;66155;46.204;5.220;2023-04-28T06:25:01;98658.56;;;18.41;49.33
48874;BME280;66155;46.204;5.220;2023-04-28T06:30:02;98652.03;;;18.61;48.93
48874;BME280;66155;46.204;5.220;2023-04-28T06:35:03;98653.91;;;18.83;48.85
48874;BME280;66155;46.204;5.220;2023-04-28T06:40:04;98671.13;;;19.03;48.53
48874;BME280;66155;46.204;5.220;2023-04-28T06:45:04;98666.38;;;18.91;48.56
48874;BME280;66155;46.204;5.220;2023-04-28T06:50:06;98674.91;;;18.88;48.29
48874;BME280;66155;46.204;5.220;2023-04-28T06:55:07;98678.94;;;18.86;48.24
48874;BME280;66155;46.204;5.220;2023-04-28T07:00:11;98677.94;;;19.04;48.06
48874;BME280;66155;46.204;5.220;2023-04-28T07:05:13;98679.41;;;19.10;47.71
48874;BME280;66155;46.204;5.220;2023-04-28T07:10:13;98672.81;;;19.30;47.75
48874;BME280;66155;46.204;5.220;2023-04-28T07:15:14;98682.94;;;19.37;47.49
48874;BME280;66155;46.204;5.220;2023-04-28T07:20:15;98680.16;;;19.42;47.64
48874;BME280;66155;46.204;5.220;2023-04-28T07:25:16;98672.28;;;19.51;47.30
48874;BME280;66155;46.204;5.220;2023-04-28T07:30:16;98671.34;;;19.55;47.06
48874;BME280;66155;46.204;5.220;2023-04-28T07:35:17;98674.78;;;19.56;47.10
48874;BME280;66155;46.204;5.220;2023-04-28T07:40:18;98669.72;;;19.77;46.92
48874;BME280;66155;46.204;5.220;2023-04-28T07:45:18;98679.88;;;19.92;46.37
48874;BME280;66155;46.204;5.220;2023-04-28T07:50:19;98675.81;;;19.78;46.71
48874;BME280;66155;46.204;5.220;2023-04-28T07:55:20;98680.06;;;20.05;46.33
48874;BME280;66155;46.204;5.220;2023-04-28T08:00:20;98690.34;;;20.24;46.01
48874;BME280;66155;46.204;5.220;2023-04-28T08:05:21;98682.75;;;20.48;46.04
48874;BME280;66155;46.204;5.220;2023-04-28T08:10:21;98694.72;;;20.37;46.06
48874;BME280;66155;46.204;5.220;2023-04-28T08:15:21;98712.31;;;20.59;45.88
48874;BME280;66155;46.204;5.220;2023-04-28T08:20:22;98687.84;;;20.97;45.47
48874;BME280;66155;46.204;5.220;2023-04-28T08:25:22;98689.03;;;21.17;45.44
48874;BME280;66155;46.204;5.220;2023-04-28T08:30:23;98693.47;;;20.87;45.49
48874;BME280;66155;46.204;5.220;2023-04-28T08:35:24;98675.75;;;20.61;46.22
48874;BME280;66155;46.204;5.220;2023-04-28T08:40:24;98687.09;;;20.62;46.39
48874;BME280;66155;46.204;5.220;2023-04-28T08:45:29;98668.72;;;20.65;46.51
48874;BME280;66155;46.204;5.220;2023-04-28T08:50:30;98676.97;;;20.81;46.01
48874;BME280;66155;46.204;5.220;2023-04-28T08:55:32;98677.72;;;20.82;46.00
48874;BME280;66155;46.204;5.220;2023-04-28T09:00:36;98693.75;;;20.94;46.23
48874;BME280;66155;46.204;5.220;2023-04-28T09:05:36;98667.56;;;21.01;45.89
48874;BME280;66155;46.204;5.220;2023-04-28T09:10:37;98666.16;;;21.13;46.01
48874;BME280;66155;46.204;5.220;2023-04-28T09:15:38;98672.91;;;21.40;45.53
48874;BME280;66155;46.204;5.220;2023-04-28T09:20:40;98671.53;;;21.72;45.05
48874;BME280;66155;46.204;5.220;2023-04-28T09:26:04;98659.69;;;21.70;44.81
48874;BME280;66155;46.204;5.220;2023-04-28T09:31:05;98670.44;;;21.73;45.15
48874;BME280;66155;46.204;5.220;2023-04-28T09:36:06;98676.25;;;22.17;44.74
48874;BME280;66155;46.204;5.220;2023-04-28T09:41:06;98671.19;;;22.25;44.55
48874;BME280;66155;46.204;5.220;2023-04-28T09:46:07;98660.88;;;22.32;44.26
48874;BME280;66155;46.204;5.220;2023-04-28T09:51:07;98674.50;;;22.21;44.34
48874;BME280;66155;46.204;5.220;2023-04-28T09:56:08;98676.53;;;22.46;44.32
48874;BME280;66155;46.204;5.220;2023-04-28T10:01:09;98675.00;;;22.78;43.63
48874;BME280;66155;46.204;5.220;2023-04-28T10:06:11;98670.28;;;22.96;42.90
48874;BME280;66155;46.204;5.220;2023-04-28T10:11:15;98657.94;;;23.25;42.66
48874;BME280;66155;46.204;5.220;2023-04-28T10:16:16;98660.72;;;23.53;42.52
48874;BME280;66155;46.204;5.220;2023-04-28T10:21:20;98668.25;;;23.51;42.64
48874;BME280;66155;46.204;5.220;2023-04-28T10:26:48;98655.28;;;23.74;41.98
48874;BME280;66155;46.204;5.220;2023-04-28T10:32:18;98654.03;;;23.96;41.64
48874;BME280;66155;46.204;5.220;2023-04-28T10:37:19;98644.84;;;23.94;42.11
48874;BME280;66155;46.204;5.220;2023-04-28T10:42:51;98640.06;;;23.99;41.95
48874;BME280;66155;46.204;5.220;2023-04-28T10:48:01;98640.34;;;24.22;41.93
48874;BME280;66155;46.204;5.220;2023-04-28T10:53:05;98618.56;;;24.61;41.12
48874;BME280;66155;46.204;5.220;2023-04-28T11:08:43;98605.94;;;25.05;40.20
48874;BME280;66155;46.204;5.220;2023-04-28T11:13:45;98603.28;;;25.21;40.42
48874;BME280;66155;46.204;5.220;2023-04-28T11:19:10;98598.69;;;25.54;39.81
48874;BME280;66155;46.204;5.220;2023-04-28T11:24:10;98599.72;;;25.49;39.59
48874;BME280;66155;46.204;5.220;2023-04-28T11:29:11;98592.53;;;25.69;39.46
48874;BME280;66155;46.204;5.220;2023-04-28T11:34:18;98574.25;;;26.07;38.38
48874;BME280;66155;46.204;5.220;2023-04-28T11:39:27;98566.66;;;26.09;38.04
48874;BME280;66155;46.204;5.220;2023-04-28T11:44:29;98551.72;;;25.69;38.96
48874;BME280;66155;46.204;5.220;2023-04-28T11:49:46;98562.19;;;25.77;38.56
48874;BME280;66155;46.204;5.220;2023-04-28T11:54:54;98555.81;;;25.63;38.67
48874;BME280;66155;46.204;5.220;2023-04-28T12:00:14;98552.38;;;25.82;38.20
48874;BME280;66155;46.204;5.220;2023-04-28T12:05:20;98535.72;;;25.69;38.30
48874;BME280;66155;46.204;5.220;2023-04-28T12:10:21;98537.53;;;25.65;38.08
48874;BME280;66155;46.204;5.220;2023-04-28T12:15:22;98544.47;;;26.05;37.75
48874;BME280;66155;46.204;5.220;2023-04-28T12:20:36;98534.47;;;26.21;37.40
48874;BME280;66155;46.204;5.220;2023-04-28T12:25:44;98514.16;;;26.40;37.08
48874;BME280;66155;46.204;5.220;2023-04-28T12:30:45;98513.41;;;26.39;37.06
48874;BME280;66155;46.204;5.220;2023-04-28T12:35:45;98511.38;;;26.55;36.79
48874;BME280;66155;46.204;5.220;2023-04-28T12:40:48;98520.75;;;26.92;36.29
48874;BME280;66155;46.204;5.220;2023-04-28T12:45:52;98524.19;;;26.92;35.38
48874;BME280;66155;46.204;5.220;2023-04-28T12:50:54;98520.53;;;27.04;35.60
48874;BME280;66155;46.204;5.220;2023-04-28T12:55:54;98518.03;;;26.88;35.63
48874;BME280;66155;46.204;5.220;2023-04-28T13:00:55;98514.66;;;26.68;35.96
48874;BME280;66155;46.204;5.220;2023-04-28T13:05:56;98513.78;;;26.18;35.31
48874;BME280;66155;46.204;5.220;2023-04-28T13:10:56;98518.22;;;26.30;35.56
48874;BME280;66155;46.204;5.220;2023-04-28T13:15:57;98507.78;;;26.67;35.05
48874;BME280;66155;46.204;5.220;2023-04-28T13:20:58;98496.31;;;26.67;35.56
48874;BME280;66155;46.204;5.220;2023-04-28T13:25:58;98493.50;;;26.83;35.18
48874;BME280;66155;46.204;5.220;2023-04-28T13:30:59;98497.34;;;26.85;35.15
48874;BME280;66155;46.204;5.220;2023-04-28T13:35:59;98485.09;;;26.84;35.15
48874;BME280;66155;46.204;5.220;2023-04-28T13:41:00;98482.72;;;26.76;35.29
48874;BME280;66155;46.204;5.220;2023-04-28T13:46:00;98472.78;;;27.03;34.47
48874;BME280;66155;46.204;5.220;2023-04-28T13:51:06;98476.78;;;26.89;34.47
48874;BME280;66155;46.204;5.220;2023-04-28T13:56:07;98471.94;;;26.72;35.38
48874;BME280;66155;46.204;5.220;2023-04-28T14:01:08;98468.91;;;26.73;34.95
48874;BME280;66155;46.204;5.220;2023-04-28T14:06:08;98473.34;;;26.89;34.86
48874;BME280;66155;46.204;5.220;2023-04-28T14:11:09;98469.59;;;26.67;35.02
48874;BME280;66155;46.204;5.220;2023-04-28T14:16:10;98461.59;;;26.44;35.12
48874;BME280;66155;46.204;5.220;2023-04-28T14:21:11;98465.13;;;26.51;35.15
48874;BME280;66155;46.204;5.220;2023-04-28T14:26:11;98451.31;;;26.46;35.17
48874;BME280;66155;46.204;5.220;2023-04-28T14:31:12;98451.31;;;26.46;35.31
48874;BME280;66155;46.204;5.220;2023-04-28T14:36:12;98443.47;;;26.83;34.85
48874;BME280;66155;46.204;5.220;2023-04-28T14:41:13;98434.41;;;27.18;34.68
48874;BME280;66155;46.204;5.220;2023-04-28T14:46:15;98441.03;;;27.28;35.07
48874;BME280;66155;46.204;5.220;2023-04-28T14:51:18;98437.53;;;27.92;34.23
48874;BME280;66155;46.204;5.220;2023-04-28T14:56:19;98441.28;;;28.32;33.79
48874;BME280;66155;46.204;5.220;2023-04-28T15:01:19;98445.19;;;28.93;33.49
48874;BME280;66155;46.204;5.220;2023-04-28T15:06:20;98425.22;;;28.80;33.33
48874;BME280;66155;46.204;5.220;2023-04-28T15:11:21;98431.56;;;28.54;33.66
48874;BME280;66155;46.204;5.220;2023-04-28T15:16:21;98414.25;;;29.14;32.36
48874;BME280;66155;46.204;5.220;2023-04-28T15:21:22;98407.53;;;30.64;30.63
48874;BME280;66155;46.204;5.220;2023-04-28T15:26:23;98415.19;;;29.61;31.74
48874;BME280;66155;46.204;5.220;2023-04-28T15:31:24;98414.88;;;28.82;32.23
48874;BME280;66155;46.204;5.220;2023-04-28T15:36:25;98414.13;;;28.30;32.57
48874;BME280;66155;46.204;5.220;2023-04-28T15:41:25;98419.09;;;28.28;32.89
48874;BME280;66155;46.204;5.220;2023-04-28T15:46:27;98417.19;;;28.32;33.07
48874;BME280;66155;46.204;5.220;2023-04-28T15:51:28;98411.09;;;28.35;32.98
48874;BME280;66155;46.204;5.220;2023-04-28T15:56:28;98407.16;;;28.18;33.39
48874;BME280;66155;46.204;5.220;2023-04-28T16:01:30;98406.97;;;28.48;33.31
48874;BME280;66155;46.204;5.220;2023-04-28T16:06:30;98399.13;;;28.77;32.84
48874;BME280;66155;46.204;5.220;2023-04-28T16:11:31;98395.56;;;28.55;33.25
48874;BME280;66155;46.204;5.220;2023-04-28T16:16:32;98391.72;;;28.04;33.69
48874;BME280;66155;46.204;5.220;2023-04-28T16:21:33;98380.47;;;27.87;34.24
48874;BME280;66155;46.204;5.220;2023-04-28T16:26:33;98379.94;;;27.34;35.06
48874;BME280;66155;46.204;5.220;2023-04-28T16:31:34;98379.22;;;27.06;35.42
48874;BME280;66155;46.204;5.220;2023-04-28T16:36:35;98375.41;;;26.77;36.08
48874;BME280;66155;46.204;5.220;2023-04-28T16:41:35;98373.84;;;26.72;36.33
48874;BME280;66155;46.204;5.220;2023-04-28T16:46:36;98370.22;;;26.88;36.58
48874;BME280;66155;46.204;5.220;2023-04-28T16:51:38;98359.34;;;28.20;34.76
48874;BME280;66155;46.204;5.220;2023-04-28T16:56:38;98358.28;;;29.12;33.20
48874;BME280;66155;46.204;5.220;2023-04-28T17:01:39;98360.97;;;28.39;34.42
48874;BME280;66155;46.204;5.220;2023-04-28T17:06:39;98367.56;;;27.97;34.88
48874;BME280;66155;46.204;5.220;2023-04-28T17:11:40;98368.47;;;26.99;36.40
48874;BME280;66155;46.204;5.220;2023-04-28T17:16:41;98370.56;;;26.29;37.44
48874;BME280;66155;46.204;5.220;2023-04-28T17:21:43;98372.28;;;25.52;38.86
48874;BME280;66155;46.204;5.220;2023-04-28T17:26:44;98375.09;;;25.01;39.82
48874;BME280;66155;46.204;5.220;2023-04-28T17:31:45;98380.03;;;24.63;40.29
48874;BME280;66155;46.204;5.220;2023-04-28T17:36:45;98369.56;;;24.55;40.80
48874;BME280;66155;46.204;5.220;2023-04-28T17:41:46;98362.94;;;24.48;40.21
48874;BME280;66155;46.204;5.220;2023-04-28T17:46:46;98362.69;;;24.38;41.47
48874;BME280;66155;46.204;5.220;2023-04-28T17:51:47;98363.66;;;24.14;41.83
48874;BME280;66155;46.204;5.220;2023-04-28T17:56:47;98348.09;;;24.00;42.08
48874;BME280;66155;46.204;5.220;2023-04-28T18:01:48;98351.91;;;23.83;42.24
48874;BME280;66155;46.204;5.220;2023-04-28T18:06:49;98355.69;;;23.69;42.52
48874;BME280;66155;46.204;5.220;2023-04-28T18:11:49;98335.53;;;23.52;42.91
48874;BME280;66155;46.204;5.220;2023-04-28T18:16:49;98326.81;;;23.40;43.64
48874;BME280;66155;46.204;5.220;2023-04-28T18:21:50;98397.66;;;23.32;43.76
48874;BME280;66155;46.204;5.220;2023-04-28T18:26:51;98500.22;;;22.96;46.17
48874;BME280;66155;46.204;5.220;2023-04-28T18:31:51;98462.94;;;22.68;46.20
48874;BME280;66155;46.204;5.220;2023-04-28T18:36:52;98382.59;;;22.71;46.18
48874;BME280;66155;46.204;5.220;2023-04-28T18:41:52;98391.78;;;22.61;47.18
48874;BME280;66155;46.204;5.220;2023-04-28T18:46:53;98413.34;;;22.59;47.34
48874;BME280;66155;46.204;5.220;2023-04-28T18:51:53;98415.25;;;22.59;47.23
48874;BME280;66155;46.204;5.220;2023-04-28T18:56:53;98429.75;;;22.49;47.84
48874;BME280;66155;46.204;5.220;2023-04-28T19:01:54;98413.59;;;22.30;48.83
48874;BME280;66155;46.204;5.220;2023-04-28T19:06:55;98405.81;;;22.25;49.18
48874;BME280;66155;46.204;5.220;2023-04-28T19:11:55;98427.16;;;22.16;49.31
48874;BME280;66155;46.204;5.220;2023-04-28T19:16:55;98437.88;;;22.19;49.00
48874;BME280;66155;46.204;5.220;2023-04-28T19:21:56;98464.66;;;22.27;48.67
48874;BME280;66155;46.204;5.220;2023-04-28T19:26:56;98479.00;;;22.26;49.20
48874;BME280;66155;46.204;5.220;2023-04-28T19:31:58;98503.88;;;22.21;49.36
48874;BME280;66155;46.204;5.220;2023-04-28T19:36:59;98507.66;;;21.99;51.31
48874;BME280;66155;46.204;5.220;2023-04-28T19:41:59;98508.88;;;21.89;52.61
48874;BME280;66155;46.204;5.220;2023-04-28T19:47:03;98542.09;;;21.65;56.03
48874;BME280;66155;46.204;5.220;2023-04-28T19:52:04;98562.69;;;21.39;55.40
48874;BME280;66155;46.204;5.220;2023-04-28T19:57:05;98582.88;;;21.22;55.89
48874;BME280;66155;46.204;5.220;2023-04-28T20:02:06;98574.19;;;21.13;56.55
48874;BME280;66155;46.204;5.220;2023-04-28T20:07:07;98537.88;;;21.14;56.89
48874;BME280;66155;46.204;5.220;2023-04-28T20:12:08;98553.78;;;21.14;57.24
48874;BME280;66155;46.204;5.220;2023-04-28T20:17:09;98556.09;;;21.15;57.40
48874;BME280;66155;46.204;5.220;2023-04-28T20:22:10;98548.03;;;21.12;57.68
48874;BME280;66155;46.204;5.220;2023-04-28T20:27:10;98554.22;;;21.16;57.67
48874;BME280;66155;46.204;5.220;2023-04-28T20:32:11;98559.06;;;21.14;57.75
48874;BME280;66155;46.204;5.220;2023-04-28T20:37:12;98544.03;;;20.97;58.45
48874;BME280;66155;46.204;5.220;2023-04-28T20:42:13;98532.59;;;20.84;59.26
48874;BME280;66155;46.204;5.220;2023-04-28T20:47:13;98526.69;;;20.69;60.08
48874;BME280;66155;46.204;5.220;2023-04-28T20:52:14;98514.16;;;20.31;62.82
48874;BME280;66155;46.204;5.220;2023-04-28T20:57:14;98507.03;;;20.14;63.62
48874;BME280;66155;46.204;5.220;2023-04-28T21:02:15;98508.91;;;20.14;63.16
48874;BME280;66155;46.204;5.220;2023-04-28T21:07:15;98512.16;;;20.20;62.78
48874;BME280;66155;46.204;5.220;2023-04-28T21:12:16;98504.88;;;20.08;63.84
48874;BME280;66155;46.204;5.220;2023-04-28T21:17:16;98504.56;;;20.09;63.17
48874;BME280;66155;46.204;5.220;2023-04-28T21:22:17;98496.19;;;19.99;63.40
48874;BME280;66155;46.204;5.220;2023-04-28T21:27:17;98488.72;;;19.92;63.79
48874;BME280;66155;46.204;5.220;2023-04-28T21:32:18;98474.53;;;19.97;63.00
48874;BME280;66155;46.204;5.220;2023-04-28T21:37:18;98474.25;;;19.98;63.55
48874;BME280;66155;46.204;5.220;2023-04-28T21:42:18;98466.00;;;20.00;62.48
48874;BME280;66155;46.204;5.220;2023-04-28T21:47:19;98470.50;;;20.17;62.01
48874;BME280;66155;46.204;5.220;2023-04-28T21:52:20;98467.97;;;20.29;62.20
48874;BME280;66155;46.204;5.220;2023-04-28T21:57:20;98481.00;;;20.34;61.98
48874;BME280;66155;46.204;5.220;2023-04-28T22:02:21;98494.06;;;20.39;61.97
48874;BME280;66155;46.204;5.220;2023-04-28T22:07:22;98516.31;;;20.47;60.96
48874;BME280;66155;46.204;5.220;2023-04-28T22:12:24;98562.25;;;20.42;61.37
48874;BME280;66155;46.204;5.220;2023-04-28T22:17:25;98553.25;;;20.00;63.86
48874;BME280;66155;46.204;5.220;2023-04-28T22:22:26;98521.53;;;19.73;65.48
48874;BME280;66155;46.204;5.220;2023-04-28T22:27:27;98505.47;;;19.70;65.32
48874;BME280;66155;46.204;5.220;2023-04-28T22:32:29;98502.06;;;19.69;66.09
48874;BME280;66155;46.204;5.220;2023-04-28T22:37:30;98492.59;;;19.60;68.36
48874;BME280;66155;46.204;5.220;2023-04-28T22:42:30;98486.81;;;19.49;68.14
48874;BME280;66155;46.204;5.220;2023-04-28T22:47:32;98465.53;;;19.36;68.77
48874;BME280;66155;46.204;5.220;2023-04-28T22:52:33;98475.28;;;19.27;68.75
48874;BME280;66155;46.204;5.220;2023-04-28T22:57:34;98488.97;;;19.21;69.26
48874;BME280;66155;46.204;5.220;2023-04-28T23:02:35;98489.88;;;19.16;68.90
48874;BME280;66155;46.204;5.220;2023-04-28T23:07:36;98478.09;;;19.13;69.25
48874;BME280;66155;46.204;5.220;2023-04-28T23:12:36;98469.34;;;19.04;69.78
48874;BME280;66155;46.204;5.220;2023-04-28T23:17:36;98471.34;;;18.98;70.98
48874;BME280;66155;46.204;5.220;2023-04-28T23:22:37;98475.69;;;18.94;70.73
48874;BME280;66155;46.204;5.220;2023-04-28T23:27:37;98483.75;;;18.89;70.20
48874;BME280;66155;46.204;5.220;2023-04-28T23:32:38;98487.31;;;18.85;70.33
48874;BME280;66155;46.204;5.220;2023-04-28T23:37:39;98479.50;;;18.79;70.94
48874;BME280;66155;46.204;5.220;2023-04-28T23:42:39;98473.91;;;18.81;70.09
48874;BME280;66155;46.204;5.220;2023-04-28T23:47:40;98498.50;;;18.82;69.56
48874;BME280;66155;46.204;5.220;2023-04-28T23:52:40;98501.59;;;18.84;69.04
48874;BME280;66155;46.204;5.220;2023-04-28T23:57:41;98505.78;;;18.85;68.52
